createdAt,value
2017-11-22T00:00:17.357Z,39.50
2017-11-22T00:02:44.787Z,39.40
2017-11-22T00:05:12.234Z,40.00
2017-11-22T00:07:39.657Z,39.40
2017-11-22T00:10:07.114Z,39.70
2017-11-22T00:12:34.542Z,39.50
2017-11-22T00:15:01.979Z,39.90
2017-11-22T00:17:29.409Z,40.00
2017-11-22T00:19:56.833Z,40.80
2017-11-22T00:22:24.264Z,40.70
2017-11-22T00:24:51.699Z,40.80
2017-11-22T00:27:19.149Z,41.00
2017-11-22T00:29:46.569Z,40.90
2017-11-22T00:32:13.998Z,40.40
2017-11-22T00:34:41.434Z,40.10
2017-11-22T00:37:08.870Z,38.90
2017-11-22T00:39:36.299Z,38.40
2017-11-22T00:42:04.521Z,37.30
2017-11-22T00:44:31.972Z,37.20
2017-11-22T00:46:59.410Z,37.20
2017-11-22T00:49:26.841Z,36.90
2017-11-22T00:51:54.271Z,36.30
2017-11-22T00:54:21.713Z,36.40
2017-11-22T00:56:49.152Z,36.30
2017-11-22T00:59:16.586Z,36.30
2017-11-22T01:01:44.025Z,36.30
2017-11-22T01:04:12.228Z,36.30
2017-11-22T01:06:39.672Z,36.20
2017-11-22T01:09:07.110Z,36.30
2017-11-22T01:11:34.538Z,36.20
2017-11-22T01:14:02.001Z,36.30
2017-11-22T01:16:29.430Z,36.30
2017-11-22T01:18:56.890Z,36.20
2017-11-22T01:21:24.372Z,36.40
2017-11-22T01:23:51.817Z,36.30
2017-11-22T01:26:19.266Z,36.60
2017-11-22T01:28:46.705Z,36.90
2017-11-22T01:31:14.158Z,36.50
2017-11-22T01:33:41.599Z,36.60
2017-11-22T01:36:09.042Z,36.20
2017-11-22T01:38:36.478Z,36.10
2017-11-22T01:41:04.691Z,36.30
2017-11-22T01:43:32.118Z,36.20
2017-11-22T01:45:59.569Z,36.20
2017-11-22T01:48:27.005Z,36.20
2017-11-22T01:50:54.458Z,36.20
2017-11-22T01:53:21.886Z,35.80
2017-11-22T01:55:49.329Z,35.30
2017-11-22T01:58:16.761Z,35.40
2017-11-22T02:00:52.921Z,34.80
2017-11-22T02:03:20.378Z,35.00
2017-11-22T02:05:47.795Z,34.90
2017-11-22T02:08:15.243Z,35.00
2017-11-22T02:10:43.393Z,34.90
2017-11-22T02:13:10.832Z,35.30
2017-11-22T02:15:38.259Z,35.40
2017-11-22T02:18:06.478Z,35.20
2017-11-22T02:20:33.902Z,35.20
2017-11-22T02:23:01.369Z,35.00
2017-11-22T02:25:28.797Z,34.90
2017-11-22T02:27:56.989Z,35.80
2017-11-22T02:30:24.433Z,35.80
2017-11-22T02:32:51.854Z,35.90
2017-11-22T02:35:19.298Z,36.20
2017-11-22T02:37:46.725Z,36.10
2017-11-22T02:40:14.166Z,36.50
2017-11-22T02:42:41.585Z,35.90
2017-11-22T02:45:09.796Z,35.50
2017-11-22T02:47:37.217Z,35.50
2017-11-22T02:50:05.422Z,35.50
2017-11-22T02:52:32.863Z,35.50
2017-11-22T02:55:01.056Z,34.70
2017-11-22T02:57:28.499Z,34.70
2017-11-22T02:59:55.937Z,34.70
2017-11-22T03:02:24.157Z,35.10
2017-11-22T03:04:51.566Z,35.10
2017-11-22T03:07:19.782Z,35.60
2017-11-22T03:09:47.201Z,35.60
2017-11-22T03:12:14.638Z,35.50
2017-11-22T03:14:42.068Z,35.50
2017-11-22T03:17:09.519Z,35.00
2017-11-22T03:19:36.950Z,35.20
2017-11-22T03:22:04.401Z,35.10
2017-11-22T03:24:31.833Z,34.60
2017-11-22T03:26:59.244Z,34.60
2017-11-22T03:29:26.678Z,34.60
2017-11-22T03:31:54.113Z,34.50
2017-11-22T03:34:21.547Z,34.70
2017-11-22T03:36:48.977Z,35.00
2017-11-22T03:39:16.413Z,35.00
2017-11-22T03:41:43.842Z,35.10
2017-11-22T03:44:11.286Z,34.70
2017-11-22T03:46:38.698Z,34.80
2017-11-22T03:49:06.142Z,35.00
2017-11-22T03:51:39.253Z,35.10
2017-11-22T03:54:06.691Z,34.40
2017-11-22T03:56:34.117Z,34.20
2017-11-22T03:59:01.552Z,34.20
2017-11-22T04:01:28.978Z,34.40
2017-11-22T04:03:59.216Z,34.20
2017-11-22T04:06:26.641Z,34.00
2017-11-22T04:08:54.087Z,34.00
2017-11-22T04:11:22.329Z,34.00
2017-11-22T04:13:49.770Z,34.30
2017-11-22T04:16:17.204Z,34.20
2017-11-22T04:18:48.633Z,34.20
2017-11-22T04:21:16.068Z,34.20
2017-11-22T04:23:43.490Z,33.60
2017-11-22T04:26:10.931Z,33.20
2017-11-22T04:28:38.354Z,33.50
2017-11-22T04:31:06.773Z,33.00
2017-11-22T04:33:34.200Z,33.20
2017-11-22T04:36:01.646Z,33.00
2017-11-22T04:38:29.123Z,33.20
2017-11-22T04:40:56.562Z,33.30
2017-11-22T04:43:23.985Z,33.50
2017-11-22T04:45:51.413Z,33.50
2017-11-22T04:48:18.854Z,33.80
2017-11-22T04:50:47.058Z,34.10
2017-11-22T04:53:14.495Z,34.00
2017-11-22T04:55:44.489Z,34.20
2017-11-22T04:58:11.920Z,34.10
2017-11-22T05:00:39.350Z,34.40
2017-11-22T05:03:06.798Z,34.50
2017-11-22T05:05:34.222Z,34.70
2017-11-22T05:08:01.671Z,34.90
2017-11-22T05:10:29.098Z,34.70
2017-11-22T05:12:56.909Z,35.00
2017-11-22T05:15:24.346Z,35.10
2017-11-22T05:17:51.814Z,35.10
2017-11-22T05:20:19.293Z,35.70
2017-11-22T05:22:46.730Z,36.00
2017-11-22T05:25:14.920Z,36.30
2017-11-22T05:27:42.354Z,36.30
2017-11-22T05:30:10.553Z,36.40
2017-11-22T05:32:37.989Z,36.30
2017-11-22T05:35:06.182Z,37.40
2017-11-22T05:37:33.637Z,37.40
2017-11-22T05:40:01.984Z,38.00
2017-11-22T05:42:29.418Z,38.20
2017-11-22T05:44:56.849Z,38.50
2017-11-22T05:47:24.296Z,38.30
2017-11-22T05:49:51.726Z,38.00
2017-11-22T05:52:19.165Z,38.60
2017-11-22T05:54:47.369Z,39.00
2017-11-22T05:57:14.793Z,39.00
2017-11-22T05:59:42.254Z,39.10
2017-11-22T06:02:09.690Z,39.60
2017-11-22T06:04:37.126Z,39.10
2017-11-22T06:07:04.560Z,39.30
2017-11-22T06:09:32.090Z,39.60
2017-11-22T06:11:59.529Z,40.00
2017-11-22T06:14:26.978Z,40.40
2017-11-22T06:16:54.409Z,40.70
2017-11-22T06:19:21.860Z,40.80
2017-11-22T06:21:49.345Z,41.40
2017-11-22T06:24:16.789Z,41.50
2017-11-22T06:26:44.270Z,41.30
2017-11-22T06:29:11.706Z,41.90
2017-11-22T06:31:39.146Z,42.50
2017-11-22T06:34:06.586Z,43.10
2017-11-22T06:36:34.034Z,43.00
2017-11-22T06:39:05.390Z,43.80
2017-11-22T06:41:32.834Z,43.70
2017-11-22T06:44:00.284Z,44.30
2017-11-22T06:46:27.725Z,44.30
2017-11-22T06:48:56.285Z,44.70
2017-11-22T06:51:23.721Z,45.30
2017-11-22T06:53:51.162Z,45.60
2017-11-22T06:56:18.606Z,45.70
2017-11-22T06:58:46.045Z,45.60
2017-11-22T07:01:18.073Z,45.60
2017-11-22T07:03:51.842Z,45.60
2017-11-22T07:06:19.294Z,45.50
2017-11-22T07:08:46.733Z,45.50
2017-11-22T07:11:14.173Z,45.40
2017-11-22T07:13:41.634Z,45.60
2017-11-22T07:16:09.077Z,45.70
2017-11-22T07:18:36.529Z,45.70
2017-11-22T07:21:03.971Z,45.60
2017-11-22T07:23:31.421Z,45.70
2017-11-22T07:25:58.867Z,45.90
2017-11-22T07:28:26.311Z,46.10
2017-11-22T07:30:53.747Z,46.20
2017-11-22T07:33:21.192Z,46.30
2017-11-22T07:35:54.179Z,46.20
2017-11-22T07:38:21.626Z,45.90
2017-11-22T07:40:49.056Z,45.60
2017-11-22T07:43:16.513Z,45.40
2017-11-22T07:45:44.719Z,44.80
2017-11-22T07:48:15.043Z,44.60
2017-11-22T07:50:44.906Z,45.00
2017-11-22T07:53:12.334Z,44.60
2017-11-22T07:55:39.786Z,44.40
2017-11-22T07:58:07.235Z,44.40
2017-11-22T08:00:35.281Z,44.40
2017-11-22T08:03:08.643Z,44.50
2017-11-22T08:05:36.090Z,44.50
2017-11-22T08:08:03.517Z,44.40
2017-11-22T08:10:30.961Z,44.20
2017-11-22T08:12:58.382Z,44.00
2017-11-22T08:15:25.818Z,43.80
2017-11-22T08:17:53.252Z,43.80
2017-11-22T08:20:20.713Z,43.80
2017-11-22T08:22:48.154Z,43.70
2017-11-22T08:25:15.594Z,43.50
2017-11-22T08:27:43.031Z,44.00
2017-11-22T08:30:10.457Z,43.80
2017-11-22T08:32:38.683Z,43.20
2017-11-22T08:35:06.102Z,43.20
2017-11-22T08:37:33.546Z,42.70
2017-11-22T08:40:00.975Z,42.70
2017-11-22T08:42:31.210Z,42.40
2017-11-22T08:44:58.637Z,42.60
2017-11-22T08:47:26.069Z,41.30
2017-11-22T08:49:53.509Z,40.40
2017-11-22T08:52:20.966Z,39.60
2017-11-22T08:54:54.894Z,39.50
2017-11-22T08:57:28.046Z,38.90
2017-11-22T09:00:01.172Z,38.80
2017-11-22T09:02:28.588Z,38.50
2017-11-22T09:04:57.713Z,39.00
2017-11-22T09:07:25.152Z,39.00
2017-11-22T09:09:52.580Z,38.90
2017-11-22T09:12:25.565Z,38.30
2017-11-22T09:14:54.805Z,37.10
2017-11-22T09:17:22.412Z,36.20
2017-11-22T09:19:49.861Z,36.10
2017-11-22T09:22:17.299Z,35.90
2017-11-22T09:27:41.930Z,35.60
2017-11-22T09:30:12.323Z,35.00
2017-11-22T09:32:40.513Z,34.90
2017-11-22T09:35:07.950Z,34.80
2017-11-22T09:37:36.193Z,33.60
2017-11-22T09:40:03.633Z,33.50
2017-11-22T09:42:31.065Z,32.90
2017-11-22T09:44:58.496Z,33.00
2017-11-22T09:47:25.933Z,32.00
2017-11-22T09:49:53.362Z,31.90
2017-11-22T09:52:20.806Z,31.60
2017-11-22T09:54:48.237Z,30.80
2017-11-22T09:57:15.671Z,30.30
2017-11-22T09:59:43.865Z,29.10
2017-11-22T10:02:11.301Z,29.00
2017-11-22T10:04:38.732Z,28.00
2017-11-22T10:07:06.174Z,26.80
2017-11-22T10:09:33.606Z,27.00
2017-11-22T10:12:01.036Z,27.30
2017-11-22T10:14:28.457Z,26.60
2017-11-22T10:17:01.478Z,26.60
2017-11-22T10:19:28.904Z,25.70
2017-11-22T10:22:01.917Z,24.50
2017-11-22T10:24:32.376Z,24.00
2017-11-22T10:27:02.130Z,24.60
2017-11-22T10:29:46.167Z,23.30
2017-11-22T10:32:19.145Z,22.30
2017-11-22T10:34:46.564Z,20.20
2017-11-22T10:37:14.014Z,19.10
2017-11-22T10:39:41.440Z,18.60
2017-11-22T10:42:09.621Z,20.90
2017-11-22T10:44:37.051Z,20.90
2017-11-22T10:47:04.481Z,21.50
2017-11-22T10:49:31.902Z,21.00
2017-11-22T10:51:59.327Z,20.80
2017-11-22T10:54:26.745Z,20.30
2017-11-22T10:56:54.175Z,20.30
2017-11-22T10:59:21.605Z,19.90
2017-11-22T11:01:49.797Z,19.60
2017-11-22T11:04:17.225Z,19.60
2017-11-22T11:06:44.650Z,19.40
2017-11-22T11:09:12.083Z,16.80
2017-11-22T11:11:39.497Z,15.50
2017-11-22T11:14:07.697Z,14.20
2017-11-22T11:16:35.120Z,14.10
2017-11-22T11:19:02.544Z,14.00
2017-11-22T11:21:29.973Z,15.80
2017-11-22T11:23:57.380Z,16.60
2017-11-22T11:26:24.809Z,16.30
2017-11-22T11:28:52.241Z,15.90
2017-11-22T11:31:19.669Z,16.30
2017-11-22T11:33:47.094Z,16.20
2017-11-22T11:36:26.119Z,16.30
2017-11-22T11:38:53.528Z,15.00
2017-11-22T11:41:20.957Z,15.60
2017-11-22T11:43:49.157Z,15.30
2017-11-22T11:46:16.578Z,15.20
2017-11-22T11:48:43.993Z,15.90
2017-11-22T11:51:11.432Z,16.50
2017-11-22T11:53:38.853Z,16.20
2017-11-22T11:56:07.068Z,16.40
2017-11-22T11:58:34.501Z,16.40
2017-11-22T12:01:01.918Z,16.00
2017-11-22T12:03:29.345Z,15.70
2017-11-22T12:05:56.765Z,15.30
2017-11-22T12:08:24.209Z,14.60
2017-11-22T12:10:51.617Z,14.80
2017-11-22T12:13:19.048Z,14.20
2017-11-22T12:15:46.473Z,13.70
2017-11-22T12:18:20.457Z,13.90
2017-11-22T12:21:04.381Z,14.00
2017-11-22T12:23:38.353Z,12.70
2017-11-22T12:26:05.774Z,12.90
2017-11-22T12:28:33.211Z,12.70
2017-11-22T12:31:00.625Z,10.50
2017-11-22T12:33:28.070Z,12.40
2017-11-22T12:35:55.486Z,10.50
2017-11-22T12:38:23.827Z,10.60
2017-11-22T12:40:51.247Z,10.30
2017-11-22T12:43:19.437Z,9.60
2017-11-22T12:45:46.855Z,9.60
2017-11-22T12:48:14.283Z,8.70
2017-11-22T12:50:41.693Z,7.40
2017-11-22T12:53:09.889Z,3.60
2017-11-22T12:55:37.301Z,3.60
2017-11-22T12:58:14.306Z,2.50
2017-11-22T13:00:41.721Z,1.00
2017-11-22T13:03:09.135Z,1.00
2017-11-22T13:05:36.552Z,1.00
2017-11-22T13:08:04.728Z,1.00
2017-11-22T13:10:33.705Z,1.00
2017-11-22T13:13:01.125Z,1.00
2017-11-22T13:15:28.555Z,1.00
2017-11-22T13:17:55.968Z,1.00
2017-11-22T13:20:23.388Z,1.00
2017-11-22T13:22:50.804Z,1.00
2017-11-22T13:25:18.238Z,1.00
2017-11-22T13:27:45.654Z,1.00
2017-11-22T13:30:13.082Z,1.00
2017-11-22T13:32:40.498Z,1.00
2017-11-22T13:35:07.929Z,1.00
2017-11-22T13:37:35.372Z,1.00
2017-11-22T13:40:02.777Z,1.00
2017-11-22T13:42:30.205Z,1.00
2017-11-22T13:44:57.620Z,1.00
2017-11-22T13:47:25.039Z,2.60
2017-11-22T13:49:52.450Z,3.50
2017-11-22T13:52:19.877Z,4.30
2017-11-22T13:54:47.295Z,5.00
2017-11-22T13:57:14.722Z,5.90
2017-11-22T13:59:42.141Z,6.20
2017-11-22T14:02:09.572Z,6.70
2017-11-22T14:04:36.984Z,7.10
2017-11-22T14:07:04.401Z,7.00
2017-11-22T14:09:31.829Z,7.70
2017-11-22T14:11:59.245Z,8.00
2017-11-22T14:14:26.703Z,8.00
2017-11-22T14:16:54.108Z,8.10
2017-11-22T14:19:21.541Z,8.50
2017-11-22T14:21:48.969Z,8.70
2017-11-22T14:24:16.377Z,9.10
2017-11-22T14:26:44.564Z,9.00
2017-11-22T14:29:11.984Z,9.10
2017-11-22T14:31:39.403Z,9.50
2017-11-22T14:34:06.833Z,9.80
2017-11-22T14:36:35.020Z,10.30
2017-11-22T14:39:02.452Z,10.30
2017-11-22T14:41:29.883Z,10.40
2017-11-22T14:43:57.312Z,10.50
2017-11-22T14:46:24.721Z,10.70
2017-11-22T14:48:52.918Z,10.70
2017-11-22T14:51:20.339Z,10.60
2017-11-22T14:53:47.758Z,11.20
2017-11-22T14:56:15.194Z,11.50
2017-11-22T14:58:42.604Z,12.00
2017-11-22T15:01:10.034Z,12.30
2017-11-22T15:03:37.462Z,12.40
2017-11-22T15:06:04.897Z,12.60
2017-11-22T15:08:32.326Z,13.00
2017-11-22T15:10:59.758Z,13.10
2017-11-22T15:13:27.181Z,13.60
2017-11-22T15:15:54.613Z,13.80
2017-11-22T15:18:22.033Z,14.00
2017-11-22T15:20:49.457Z,14.50
2017-11-22T15:23:16.901Z,15.30
2017-11-22T15:25:44.317Z,15.70
2017-11-22T15:28:11.746Z,16.10
2017-11-22T15:30:39.174Z,16.80
2017-11-22T15:33:06.596Z,17.30
2017-11-22T15:35:34.013Z,17.80
2017-11-22T15:38:01.457Z,18.20
2017-11-22T15:40:28.885Z,18.90
2017-11-22T15:42:56.317Z,19.30
2017-11-22T15:45:23.736Z,19.60
2017-11-22T15:47:51.173Z,19.80
2017-11-22T15:50:18.604Z,20.30
2017-11-22T15:52:46.053Z,20.70
2017-11-22T15:55:13.474Z,21.10
2017-11-22T15:57:40.897Z,21.30
2017-11-22T16:00:08.341Z,21.90
2017-11-22T16:02:35.761Z,22.10
2017-11-22T16:05:03.197Z,22.40
2017-11-22T16:07:30.626Z,22.40
2017-11-22T16:09:58.069Z,22.60
2017-11-22T16:12:25.494Z,22.50
2017-11-22T16:14:52.922Z,22.80
2017-11-22T16:17:20.354Z,23.10
2017-11-22T16:19:47.799Z,23.40
2017-11-22T16:22:15.212Z,23.50
2017-11-22T16:24:43.424Z,23.90
2017-11-22T16:27:10.854Z,23.90
2017-11-22T16:29:38.295Z,24.10
2017-11-22T16:32:05.719Z,24.50
2017-11-22T16:34:33.145Z,24.70
2017-11-22T16:37:00.575Z,25.00
2017-11-22T16:39:28.057Z,25.30
2017-11-22T16:41:55.469Z,25.20
2017-11-22T16:44:23.689Z,25.80
2017-11-22T16:46:51.133Z,25.80
2017-11-22T16:49:18.560Z,25.90
2017-11-22T16:51:46.007Z,26.20
2017-11-22T16:54:13.439Z,26.40
2017-11-22T16:56:40.867Z,26.50
2017-11-22T16:59:08.301Z,26.80
2017-11-22T17:01:35.721Z,27.10
2017-11-22T17:04:03.171Z,27.90
2017-11-22T17:06:30.608Z,28.50
2017-11-22T17:08:58.044Z,28.50
2017-11-22T17:11:25.473Z,29.00
2017-11-22T17:13:52.908Z,29.10
2017-11-22T17:16:21.114Z,29.50
2017-11-22T17:18:48.557Z,29.20
2017-11-22T17:21:15.982Z,29.30
2017-11-22T17:23:43.417Z,29.10
2017-11-22T17:26:11.013Z,28.80
2017-11-22T17:28:38.441Z,28.70
2017-11-22T17:31:05.872Z,28.80
2017-11-22T17:33:33.324Z,28.80
2017-11-22T17:36:00.831Z,29.30
2017-11-22T17:38:28.309Z,29.50
2017-11-22T17:40:56.677Z,30.70
2017-11-22T17:43:24.110Z,30.70
2017-11-22T17:45:51.593Z,30.60
2017-11-22T17:48:19.790Z,30.70
2017-11-22T17:50:47.230Z,30.70
2017-11-22T17:53:14.659Z,30.70
2017-11-22T17:55:42.109Z,31.60
2017-11-22T17:58:09.524Z,31.90
2017-11-22T18:00:36.966Z,32.10
2017-11-22T18:03:04.377Z,32.10
2017-11-22T18:05:31.895Z,32.80
2017-11-22T18:07:59.313Z,33.60
2017-11-22T18:10:26.771Z,33.80
2017-11-22T18:12:54.183Z,33.50
2017-11-22T18:15:21.611Z,32.90
2017-11-22T18:17:49.045Z,33.00
2017-11-22T18:20:16.472Z,33.40
2017-11-22T18:22:44.038Z,33.50
2017-11-22T18:25:11.458Z,34.90
2017-11-22T18:27:38.897Z,35.20
2017-11-22T18:30:06.329Z,35.80
2017-11-22T18:32:33.750Z,36.10
2017-11-22T18:35:01.179Z,36.10
2017-11-22T18:37:28.632Z,36.10
2017-11-22T18:39:56.071Z,36.00
2017-11-22T18:42:23.521Z,36.30
2017-11-22T18:44:51.091Z,37.50
2017-11-22T18:47:18.533Z,37.70
2017-11-22T18:49:45.942Z,38.60
2017-11-22T18:52:13.356Z,38.50
2017-11-22T18:54:40.802Z,38.10
2017-11-22T18:57:08.217Z,37.70
2017-11-22T18:59:35.647Z,37.50
2017-11-22T19:02:03.068Z,37.30
2017-11-22T19:04:30.501Z,37.10
2017-11-22T19:06:58.688Z,36.40
2017-11-22T19:09:26.126Z,36.30
2017-11-22T19:11:54.327Z,36.30
2017-11-22T19:14:21.756Z,36.30
2017-11-22T19:16:49.941Z,36.00
2017-11-22T19:19:17.381Z,36.00
2017-11-22T19:21:44.804Z,35.90
2017-11-22T19:24:12.233Z,35.70
2017-11-22T19:26:39.652Z,35.60
2017-11-22T19:29:07.850Z,35.50
2017-11-22T19:31:35.281Z,35.50
2017-11-22T19:34:02.726Z,35.60
2017-11-22T19:36:30.162Z,35.70
2017-11-22T19:38:57.572Z,35.90
2017-11-22T19:41:25.030Z,35.90
2017-11-22T19:43:52.454Z,35.90
2017-11-22T19:46:20.646Z,35.00
2017-11-22T19:48:48.092Z,35.00
2017-11-22T19:51:15.529Z,34.50
2017-11-22T19:53:42.964Z,34.20
2017-11-22T19:56:10.384Z,35.00
2017-11-22T19:58:37.814Z,37.10
2017-11-22T20:01:05.997Z,38.40
2017-11-22T20:03:33.429Z,38.40
2017-11-22T20:06:00.852Z,39.10
2017-11-22T20:08:39.994Z,40.00
2017-11-22T20:11:07.410Z,40.30
2017-11-22T20:13:34.833Z,40.00
2017-11-22T20:16:03.021Z,40.10
2017-11-22T20:18:30.459Z,40.00
2017-11-22T20:20:58.636Z,40.00
2017-11-22T20:23:26.842Z,39.90
2017-11-22T20:25:54.261Z,39.90
2017-11-22T20:28:22.486Z,40.30
2017-11-22T20:30:49.922Z,40.20
2017-11-22T20:33:17.359Z,40.50
2017-11-22T20:35:44.803Z,40.50
2017-11-22T20:38:12.220Z,40.80
2017-11-22T20:40:39.669Z,40.60
2017-11-22T20:43:07.085Z,40.90
2017-11-22T20:45:34.521Z,41.00
2017-11-22T20:48:02.722Z,41.10
2017-11-22T20:50:30.145Z,41.10
2017-11-22T20:52:57.573Z,41.20
2017-11-22T20:55:25.016Z,41.20
2017-11-22T20:57:52.436Z,41.30
2017-11-22T21:00:19.880Z,41.50
2017-11-22T21:02:48.072Z,41.50
2017-11-22T21:05:15.518Z,41.50
2017-11-22T21:07:42.949Z,41.50
2017-11-22T21:10:10.397Z,42.10
2017-11-22T21:12:37.828Z,42.20
2017-11-22T21:15:05.262Z,42.60
2017-11-22T21:17:32.718Z,42.90
2017-11-22T21:20:00.145Z,43.10
2017-11-22T21:22:28.353Z,43.40
2017-11-22T21:24:55.782Z,43.40
2017-11-22T21:27:23.221Z,43.70
2017-11-22T21:29:51.412Z,43.90
2017-11-22T21:32:18.853Z,43.80
2017-11-22T21:34:46.273Z,44.30
2017-11-22T21:37:13.717Z,44.30
2017-11-22T21:39:41.151Z,44.20
2017-11-22T21:42:08.591Z,44.20
2017-11-22T21:44:36.020Z,44.20
2017-11-22T21:47:03.477Z,44.40
2017-11-22T21:49:30.900Z,44.80
2017-11-22T21:51:58.328Z,45.00
2017-11-22T21:54:25.761Z,45.00
2017-11-22T21:56:53.957Z,45.00
2017-11-22T21:59:21.393Z,45.00
2017-11-22T22:01:49.589Z,45.00
2017-11-22T22:04:17.026Z,45.00
2017-11-22T22:06:44.452Z,45.00
2017-11-22T22:09:11.897Z,45.00
2017-11-22T22:11:39.325Z,45.60
2017-11-22T22:14:06.762Z,45.20
2017-11-22T22:16:34.189Z,44.80
2017-11-22T22:19:01.625Z,44.50
2017-11-22T22:21:29.051Z,44.20
2017-11-22T22:23:56.528Z,44.70
2017-11-22T22:26:23.928Z,45.10
2017-11-22T22:28:51.362Z,45.10
2017-11-22T22:31:18.801Z,45.40
2017-11-22T22:33:46.233Z,44.70
2017-11-22T22:36:13.688Z,44.50
2017-11-22T22:38:41.121Z,43.80
2017-11-22T22:41:08.565Z,43.80
2017-11-22T22:43:36.001Z,43.70
2017-11-22T22:46:03.437Z,43.70
2017-11-22T22:48:30.903Z,43.60
2017-11-22T22:50:58.344Z,43.60
2017-11-22T22:53:25.773Z,43.40
2017-11-22T22:55:53.218Z,41.90
2017-11-22T22:58:20.698Z,41.50
2017-11-22T23:00:48.125Z,41.40
2017-11-22T23:03:15.553Z,41.10
2017-11-22T23:05:42.986Z,41.70
2017-11-22T23:08:10.421Z,42.70
2017-11-22T23:10:37.873Z,45.00
2017-11-22T23:13:05.312Z,46.00
2017-11-22T23:15:32.729Z,46.30
2017-11-22T23:18:00.239Z,46.10
2017-11-22T23:20:27.650Z,46.10
2017-11-22T23:22:55.853Z,45.60
2017-11-22T23:25:23.286Z,45.50
2017-11-22T23:27:51.501Z,46.10
2017-11-22T23:30:18.921Z,46.10
2017-11-22T23:32:46.361Z,46.20
2017-11-22T23:35:13.793Z,46.60
2017-11-22T23:37:41.235Z,46.70
2017-11-22T23:40:08.658Z,46.50
2017-11-22T23:42:36.089Z,46.50
2017-11-22T23:45:03.517Z,46.00
2017-11-22T23:47:30.957Z,45.90
2017-11-22T23:49:58.380Z,46.00
2017-11-22T23:52:25.820Z,47.00
2017-11-22T23:54:54.028Z,46.20
2017-11-22T23:57:21.462Z,46.20
2017-11-22T23:59:48.941Z,45.90
